createdAt,value
2022-08-10T00:00:09.486Z,99.90
2022-08-10T00:05:43.900Z,99.90
2022-08-10T00:10:57.747Z,99.90
2022-08-10T00:16:01.326Z,99.90
2022-08-10T00:21:09.202Z,99.90
2022-08-10T00:26:12.406Z,99.90
2022-08-10T00:31:15.650Z,99.90
2022-08-10T00:36:18.786Z,99.90
2022-08-10T00:41:21.960Z,99.90
2022-08-10T00:46:27.286Z,99.90
2022-08-10T00:51:40.334Z,99.90
2022-08-10T00:57:18.106Z,99.90
2022-08-10T01:02:15.525Z,99.90
2022-08-10T01:07:39.644Z,99.90
2022-08-10T01:13:07.347Z,99.90
2022-08-10T01:18:22.386Z,99.90
2022-08-10T01:23:37.666Z,99.90
2022-08-10T01:29:01.866Z,99.90
2022-08-10T01:34:12.486Z,99.90
2022-08-10T01:39:30.982Z,99.90
2022-08-10T01:44:41.027Z,99.90
2022-08-10T01:49:46.866Z,99.90
2022-08-10T01:54:52.846Z,99.90
2022-08-10T02:00:02.499Z,99.90
2022-08-10T02:05:08.357Z,99.90
2022-08-10T02:10:14.565Z,99.90
2022-08-10T02:15:21.746Z,99.90
2022-08-10T02:20:31.464Z,99.90
2022-08-10T02:25:42.567Z,99.90
2022-08-10T02:30:47.887Z,99.90
2022-08-10T02:35:55.826Z,99.90
2022-08-10T02:42:18.085Z,99.90
2022-08-10T02:46:35.666Z,99.90
2022-08-10T02:52:06.856Z,99.90
2022-08-10T02:57:20.245Z,99.90
2022-08-10T03:02:31.895Z,99.90
2022-08-10T03:07:43.598Z,99.90
2022-08-10T03:12:52.139Z,99.90
2022-08-10T03:17:58.781Z,99.90
2022-08-10T03:23:06.251Z,99.90
2022-08-10T03:28:10.450Z,99.90
2022-08-10T03:33:23.994Z,99.90
2022-08-10T03:38:27.246Z,99.90
2022-08-10T03:43:31.663Z,99.90
2022-08-10T03:48:47.147Z,99.90
2022-08-10T03:54:05.854Z,99.90
2022-08-10T03:59:17.047Z,99.90
2022-08-10T04:04:24.755Z,99.90
2022-08-10T04:09:43.186Z,99.90
2022-08-10T04:14:54.396Z,99.90
2022-08-10T04:20:00.051Z,99.90
2022-08-10T04:25:05.685Z,99.90
2022-08-10T04:30:09.666Z,99.90
2022-08-10T04:35:15.706Z,99.90
2022-08-10T04:40:29.545Z,99.90
2022-08-10T04:45:49.283Z,99.90
2022-08-10T04:50:55.406Z,99.90
2022-08-10T04:56:03.286Z,99.90
2022-08-10T05:01:06.441Z,99.90
2022-08-10T05:06:09.746Z,99.90
2022-08-10T05:11:12.907Z,99.90
2022-08-10T05:16:31.803Z,99.90
2022-08-10T05:22:01.440Z,99.90
2022-08-10T05:27:08.366Z,99.90
2022-08-10T05:32:14.047Z,99.90
2022-08-10T05:38:13.312Z,99.90
2022-08-10T05:42:42.263Z,99.90
2022-08-10T05:48:53.977Z,99.90
2022-08-10T05:54:01.837Z,99.90
2022-08-10T05:58:31.847Z,99.90
2022-08-10T06:03:40.233Z,99.90
2022-08-10T06:08:46.805Z,99.90
2022-08-10T06:14:13.172Z,99.90
2022-08-10T06:19:18.206Z,99.90
2022-08-10T06:24:25.514Z,99.90
2022-08-10T06:30:20.767Z,99.90
2022-08-10T06:35:58.260Z,99.90
2022-08-10T06:42:14.451Z,99.90
2022-08-10T06:59:21.906Z,99.90
2022-08-10T07:04:35.888Z,99.90
2022-08-10T07:09:42.054Z,99.90
2022-08-10T07:14:47.246Z,99.90
2022-08-10T07:19:55.145Z,99.90
2022-08-10T07:24:59.509Z,99.90
2022-08-10T07:30:02.926Z,99.90
2022-08-10T07:35:07.586Z,99.90
2022-08-10T07:40:13.487Z,99.90
2022-08-10T07:45:16.867Z,99.90
2022-08-10T07:50:26.015Z,99.90
2022-08-10T07:56:04.867Z,99.90
2022-08-10T08:00:58.439Z,99.90
2022-08-10T08:06:05.381Z,99.90
2022-08-10T08:11:25.745Z,99.90
2022-08-10T08:16:32.044Z,99.90
2022-08-10T08:24:14.785Z,99.90
2022-08-10T08:27:05.970Z,99.90
2022-08-10T08:32:10.328Z,99.90
2022-08-10T08:38:29.686Z,99.90
2022-08-10T08:43:01.359Z,99.90
2022-08-10T08:48:36.466Z,98.40
2022-08-10T08:54:02.526Z,96.50
2022-08-10T08:59:31.858Z,95.40
2022-08-10T09:04:52.835Z,96.80
2022-08-10T09:10:09.154Z,94.40
2022-08-10T09:15:41.047Z,91.60
2022-08-10T09:20:54.438Z,91.10
2022-08-10T09:26:08.207Z,88.00
2022-08-10T09:31:22.331Z,91.60
2022-08-10T09:36:49.932Z,90.00
2022-08-10T09:42:14.632Z,82.40
2022-08-10T09:48:00.013Z,74.30
2022-08-10T09:53:38.081Z,75.00
2022-08-10T09:59:26.759Z,78.10
2022-08-10T10:05:06.897Z,76.50
2022-08-10T10:10:16.443Z,75.60
2022-08-10T10:15:36.554Z,76.70
2022-08-10T10:21:24.161Z,76.60
2022-08-10T10:27:16.555Z,72.30
2022-08-10T10:32:47.996Z,71.60
2022-08-10T10:38:09.590Z,72.00
2022-08-10T10:43:22.815Z,70.50
2022-08-10T10:48:29.365Z,68.90
2022-08-10T10:54:10.074Z,66.60
2022-08-10T10:59:53.621Z,62.50
2022-08-10T11:05:23.981Z,63.00
2022-08-10T11:10:46.481Z,67.40
2022-08-10T11:16:13.926Z,63.10
2022-08-10T11:21:30.923Z,63.90
2022-08-10T11:27:21.662Z,64.90
2022-08-10T11:32:33.127Z,66.50
2022-08-10T11:38:29.591Z,66.30
2022-08-10T11:43:24.424Z,65.00
2022-08-10T11:48:53.318Z,62.80
2022-08-10T11:54:05.082Z,64.60
2022-08-10T11:59:27.746Z,64.60
2022-08-10T12:04:32.426Z,64.50
2022-08-10T12:10:10.939Z,62.70
2022-08-10T12:15:09.561Z,57.00
2022-08-10T12:20:25.230Z,57.70
2022-08-10T12:25:57.630Z,62.10
2022-08-10T12:31:04.046Z,59.50
2022-08-10T12:36:22.477Z,58.10
2022-08-10T12:41:44.504Z,55.20
2022-08-10T12:47:14.038Z,56.10
2022-08-10T12:52:35.507Z,57.80
2022-08-10T12:57:40.826Z,56.30
2022-08-10T13:02:48.769Z,55.30
2022-08-10T13:08:27.625Z,55.30
2022-08-10T13:13:40.486Z,55.80
2022-08-10T13:18:45.648Z,56.80
2022-08-10T13:24:15.626Z,58.50
2022-08-10T13:29:24.397Z,58.60
2022-08-10T13:34:43.132Z,58.30
2022-08-10T13:39:59.856Z,57.10
2022-08-10T13:45:12.988Z,55.20
2022-08-10T13:50:33.499Z,56.20
2022-08-10T13:55:54.909Z,54.30
2022-08-10T14:01:02.279Z,55.90
2022-08-10T14:06:07.796Z,57.00
2022-08-10T14:11:17.953Z,57.70
2022-08-10T14:16:22.769Z,56.70
2022-08-10T14:21:26.927Z,56.30
2022-08-10T14:26:31.927Z,54.80
2022-08-10T14:31:38.117Z,56.10
2022-08-10T14:36:48.586Z,51.10
2022-08-10T14:42:05.696Z,51.50
2022-08-10T14:47:52.690Z,51.80
2022-08-10T14:52:44.470Z,49.90
2022-08-10T14:58:20.294Z,47.70
2022-08-10T15:03:59.160Z,48.30
2022-08-10T15:08:47.068Z,50.00
2022-08-10T15:14:40.924Z,49.60
2022-08-10T15:20:01.315Z,48.60
2022-08-10T15:25:02.847Z,49.20
2022-08-10T15:30:11.679Z,46.70
2022-08-10T15:35:36.466Z,48.50
2022-08-10T15:40:51.894Z,48.20
2022-08-10T15:46:09.717Z,49.00
2022-08-10T15:51:28.084Z,49.90
2022-08-10T15:56:50.184Z,50.60
2022-08-10T16:02:14.242Z,51.50
2022-08-10T16:07:46.242Z,52.30
2022-08-10T16:12:59.800Z,51.70
2022-08-10T16:18:13.024Z,51.60
2022-08-10T16:23:20.820Z,51.60
2022-08-10T16:28:33.308Z,51.10
2022-08-10T16:33:54.265Z,51.20
2022-08-10T16:38:59.448Z,51.80
2022-08-10T16:44:04.056Z,52.50
2022-08-10T16:49:09.545Z,52.60
2022-08-10T16:54:15.186Z,53.00
2022-08-10T16:59:24.345Z,53.60
2022-08-10T17:04:29.586Z,54.00
2022-08-10T17:09:36.626Z,54.20
2022-08-10T17:14:42.556Z,54.00
2022-08-10T17:19:46.506Z,54.80
2022-08-10T17:25:18.431Z,55.00
2022-08-10T17:30:34.336Z,54.10
2022-08-10T17:35:42.983Z,54.70
2022-08-10T17:41:04.189Z,55.30
2022-08-10T17:46:09.666Z,55.60
2022-08-10T17:51:15.690Z,56.40
2022-08-10T17:56:21.835Z,56.40
2022-08-10T18:01:42.075Z,56.90
2022-08-10T18:07:00.188Z,59.70
2022-08-10T18:12:18.451Z,63.40
2022-08-10T18:17:26.071Z,63.70
2022-08-10T18:22:31.585Z,65.50
2022-08-10T18:28:01.177Z,67.30
2022-08-10T18:33:03.910Z,69.10
2022-08-10T18:38:08.667Z,69.60
2022-08-10T18:44:10.601Z,72.00
2022-08-10T18:48:50.197Z,73.80
2022-08-10T18:53:59.369Z,78.20
2022-08-10T18:59:32.387Z,79.70
2022-08-10T19:04:41.566Z,84.60
2022-08-10T19:09:53.503Z,90.20
2022-08-10T19:15:20.507Z,92.40
2022-08-10T19:20:56.386Z,93.70
2022-08-10T19:26:42.072Z,96.00
2022-08-10T19:32:20.388Z,98.60
2022-08-10T19:37:34.081Z,99.90
2022-08-10T19:42:47.666Z,99.90
2022-08-10T19:48:09.746Z,99.90
2022-08-10T19:53:27.609Z,99.90
2022-08-10T19:58:41.958Z,99.90
2022-08-10T20:04:00.468Z,99.90
2022-08-10T20:09:26.908Z,99.90
2022-08-10T20:14:34.653Z,99.90
2022-08-10T20:19:52.898Z,99.90
2022-08-10T20:25:05.194Z,99.90
2022-08-10T20:30:11.330Z,99.90
2022-08-10T20:35:46.347Z,99.90
2022-08-10T20:41:04.090Z,99.90
2022-08-10T20:46:34.428Z,99.90
2022-08-10T20:51:58.609Z,99.90
2022-08-10T20:57:55.309Z,99.90
2022-08-10T21:03:42.807Z,99.90
2022-08-10T21:09:08.814Z,99.90
2022-08-10T21:14:51.592Z,99.90
2022-08-10T21:20:16.443Z,99.90
2022-08-10T21:25:41.793Z,99.90
2022-08-10T21:31:05.767Z,99.90
2022-08-10T21:36:24.411Z,99.90
2022-08-10T21:42:07.552Z,99.90
2022-08-10T21:48:29.938Z,99.90
2022-08-10T21:54:19.203Z,99.90
2022-08-10T21:59:56.452Z,99.90
2022-08-10T22:05:22.334Z,99.90
2022-08-10T22:10:48.315Z,99.90
2022-08-10T22:16:15.529Z,99.90
2022-08-10T22:22:01.059Z,99.90
2022-08-10T22:27:57.628Z,99.90
2022-08-10T22:33:54.706Z,99.90
2022-08-10T22:40:11.630Z,99.90
2022-08-10T22:45:19.273Z,99.90
2022-08-10T22:50:26.760Z,99.90
2022-08-10T22:55:56.367Z,99.90
2022-08-10T23:01:15.667Z,99.90
2022-08-10T23:06:22.113Z,99.90
2022-08-10T23:11:36.235Z,99.90
2022-08-10T23:17:11.834Z,99.90
2022-08-10T23:22:20.093Z,99.90
2022-08-10T23:27:38.894Z,99.90
2022-08-10T23:32:50.460Z,99.90
2022-08-10T23:37:57.233Z,99.90
2022-08-10T23:43:00.974Z,99.90
2022-08-10T23:48:05.233Z,99.90
2022-08-10T23:53:13.456Z,99.90
2022-08-10T23:58:33.555Z,99.90
